Time;durP1;ratioP1;P1;durP2;ratioP2;P2;SDS_P1;SDS_P2;PMS_P1;PMS_P2;Temp;Humidity;BMP_temperature;BMP_pressure;BME280_temperature;BME280_humidity;BME280_pressure;Samples;Min_cycle;Max_cycle;Signal;HPM_P1;HPM_P2
2021/04/13 00:02:15;;;;;;;7.32;4.60;;;23.50;35.20;;;;;;6193746;28;81186;-66
2021/04/13 00:05:16;;;;;;;7.07;5.22;;;23.50;35.00;;;;;;6215392;28;80874;-66
2021/04/13 00:08:16;;;;;;;6.65;4.40;;;23.50;35.00;;;;;;6206876;28;81759;-66
2021/04/13 00:11:17;;;;;;;7.20;4.47;;;23.50;35.30;;;;;;6213880;28;81661;-67
2021/04/13 00:14:17;;;;;;;6.40;4.03;;;23.50;34.90;;;;;;6199721;28;81274;-67
2021/04/13 00:17:18;;;;;;;6.35;4.20;;;23.50;35.10;;;;;;6215154;28;80443;-67
2021/04/13 00:20:19;;;;;;;6.47;4.40;;;23.50;35.10;;;;;;6210662;28;83108;-67
2021/04/13 00:23:19;;;;;;;5.38;4.05;;;23.50;34.80;;;;;;6199511;28;81756;-66
2021/04/13 00:26:20;;;;;;;7.43;4.72;;;23.50;34.90;;;;;;6192572;28;81083;-66
2021/04/13 00:29:20;;;;;;;5.32;4.10;;;23.50;34.70;;;;;;6201060;28;81005;-66
2021/04/13 00:32:21;;;;;;;6.05;4.20;;;23.50;34.80;;;;;;6204691;27;80460;-67
2021/04/13 00:35:30;;;;;;;7.30;4.80;;;23.50;34.60;;;;;;6200178;28;81487;-66
2021/04/13 00:38:31;;;;;;;6.60;4.63;;;23.50;34.50;;;;;;6223190;28;83483;-66
2021/04/13 00:41:31;;;;;;;6.22;4.07;;;23.50;34.30;;;;;;6223509;28;81646;-66
2021/04/13 00:44:32;;;;;;;5.15;3.80;;;23.50;34.20;;;;;;6218580;28;81449;-66
2021/04/13 00:47:32;;;;;;;5.18;3.67;;;23.50;34.10;;;;;;6211264;28;80477;-66
2021/04/13 00:50:33;;;;;;;6.65;3.80;;;23.50;34.40;;;;;;6217124;28;80196;-66
2021/04/13 00:53:33;;;;;;;6.13;3.70;;;23.40;34.30;;;;;;6199102;27;83462;-66
2021/04/13 00:56:34;;;;;;;4.90;3.70;;;23.40;34.50;;;;;;6220062;28;80609;-66
2021/04/13 00:59:34;;;;;;;4.22;2.97;;;23.40;34.80;;;;;;6196852;28;81604;-66
2021/04/13 01:02:35;;;;;;;4.60;3.40;;;23.50;34.50;;;;;;6214799;27;80410;-66
2021/04/13 01:05:35;;;;;;;4.32;2.80;;;23.40;34.40;;;;;;6217606;28;81019;-66
2021/04/13 01:08:36;;;;;;;4.28;3.00;;;23.40;34.70;;;;;;6217334;28;89564;-67
2021/04/13 01:11:36;;;;;;;4.18;2.97;;;23.40;35.20;;;;;;6209100;27;81449;-67
2021/04/13 01:14:37;;;;;;;5.50;2.88;;;23.40;34.30;;;;;;6199756;28;81345;-66
2021/04/13 01:17:37;;;;;;;4.40;2.78;;;23.40;34.60;;;;;;6202847;28;81366;-66
2021/04/13 01:20:39;;;;;;;3.83;2.70;;;23.40;34.50;;;;;;6208550;28;80750;-67
2021/04/13 01:23:59;;;;;;;3.47;2.80;;;23.40;34.20;;;;;;6195271;28;80454;-66
2021/04/13 01:27:00;;;;;;;5.88;2.50;;;23.40;34.50;;;;;;6194679;28;80556;-66
2021/04/13 01:30:02;;;;;;;3.08;2.25;;;23.40;34.50;;;;;;6211937;28;80739;-66
2021/04/13 01:33:03;;;;;;;3.47;2.53;;;23.40;34.30;;;;;;6204294;28;81536;-65
2021/04/13 01:36:03;;;;;;;3.88;2.30;;;23.40;34.00;;;;;;6218450;28;81553;-66
2021/04/13 01:39:05;;;;;;;2.95;2.40;;;23.40;34.30;;;;;;6200177;28;80672;-66
2021/04/13 01:42:06;;;;;;;3.50;2.40;;;23.40;34.10;;;;;;6187263;28;80715;-67
2021/04/13 01:45:06;;;;;;;2.80;2.25;;;23.30;34.00;;;;;;6203899;28;80664;-66
2021/04/13 01:48:07;;;;;;;2.33;2.13;;;23.30;34.50;;;;;;6212949;27;80179;-67
2021/04/13 01:51:08;;;;;;;2.60;2.03;;;23.40;34.20;;;;;;6212475;28;83152;-67
2021/04/13 01:54:11;;;;;;;3.90;2.17;;;23.40;34.30;;;;;;6200504;28;80426;-67
2021/04/13 01:57:12;;;;;;;2.60;1.95;;;23.40;33.80;;;;;;6207418;28;80849;-67
2021/04/13 02:00:12;;;;;;;2.65;2.00;;;23.40;33.90;;;;;;6202795;28;80618;-67
2021/04/13 02:03:16;;;;;;;2.58;2.15;;;23.30;33.70;;;;;;6211061;28;81637;-66
2021/04/13 02:06:17;;;;;;;2.65;2.03;;;23.30;33.80;;;;;;6204502;27;80487;-67
2021/04/13 02:09:26;;;;;;;3.03;1.80;;;23.30;33.60;;;;;;6215725;27;80785;-66
2021/04/13 02:12:27;;;;;;;2.55;2.00;;;23.30;33.50;;;;;;6206469;27;81031;-66
2021/04/13 02:15:27;;;;;;;2.00;1.80;;;23.30;33.80;;;;;;6198667;28;81010;-67
2021/04/13 02:18:28;;;;;;;2.75;2.00;;;23.30;33.70;;;;;;6202020;28;82080;-66
2021/04/13 02:21:29;;;;;;;2.33;1.75;;;23.30;33.90;;;;;;6201709;28;80921;-66
2021/04/13 02:24:32;;;;;;;3.63;2.00;;;23.30;33.50;;;;;;6216357;27;80802;-65
2021/04/13 02:27:33;;;;;;;2.90;2.13;;;23.30;33.50;;;;;;6214325;28;80753;-64
2021/04/13 02:30:33;;;;;;;3.97;2.15;;;23.30;33.50;;;;;;6202463;28;80764;-65
2021/04/13 02:33:34;;;;;;;3.38;2.15;;;23.30;34.00;;;;;;6223990;28;83386;-65
2021/04/13 02:36:34;;;;;;;2.22;1.80;;;23.30;33.60;;;;;;6210073;27;80943;-65
2021/04/13 02:39:35;;;;;;;2.45;2.10;;;23.30;33.40;;;;;;6200606;27;80961;-65
2021/04/13 02:42:39;;;;;;;1.80;1.70;;;23.30;33.50;;;;;;6196984;27;81919;-66
2021/04/13 02:45:40;;;;;;;3.45;1.92;;;23.30;33.90;;;;;;6202313;27;82075;-66
2021/04/13 02:48:41;;;;;;;2.33;2.00;;;23.30;33.60;;;;;;6197714;28;81411;-66
2021/04/13 02:51:42;;;;;;;2.63;2.30;;;23.30;33.70;;;;;;6199754;28;80783;-66
2021/04/13 02:54:42;;;;;;;3.55;2.13;;;23.30;33.50;;;;;;6194781;28;80933;-66
2021/04/13 02:57:44;;;;;;;3.40;2.50;;;23.30;33.40;;;;;;6199258;28;80808;-66
2021/04/13 03:00:45;;;;;;;3.35;2.42;;;23.30;33.60;;;;;;6200896;28;80932;-66
2021/04/13 03:03:45;;;;;;;3.42;2.42;;;23.20;33.30;;;;;;6211336;27;80924;-66
2021/04/13 03:06:46;;;;;;;3.55;2.47;;;23.30;33.50;;;;;;6205532;27;82533;-66
2021/04/13 03:09:46;;;;;;;4.95;2.42;;;23.20;33.30;;;;;;6198941;27;80800;-66
2021/04/13 03:12:47;;;;;;;3.97;3.05;;;23.20;33.70;;;;;;6206732;28;80854;-66
2021/04/13 03:15:47;;;;;;;3.45;2.72;;;23.20;33.20;;;;;;6211236;28;81899;-66
2021/04/13 03:18:48;;;;;;;3.30;2.20;;;23.20;33.40;;;;;;6197793;28;82043;-67
2021/04/13 03:21:49;;;;;;;5.28;2.85;;;23.20;33.60;;;;;;6196452;28;80824;-66
2021/04/13 03:24:49;;;;;;;3.42;2.25;;;23.20;34.30;;;;;;6197608;28;80918;-66
2021/04/13 03:27:50;;;;;;;3.78;2.58;;;23.30;34.00;;;;;;6197293;28;81746;-66
2021/04/13 03:30:50;;;;;;;4.35;2.83;;;23.20;33.30;;;;;;6201736;28;80620;-67
2021/04/13 03:33:51;;;;;;;4.47;2.53;;;23.20;32.40;;;;;;6201374;27;81414;-65
2021/04/13 03:36:51;;;;;;;3.90;2.53;;;23.30;32.20;;;;;;6200179;28;83329;-66
2021/04/13 03:39:52;;;;;;;3.05;2.20;;;23.30;32.40;;;;;;6209133;28;80684;-66
2021/04/13 03:42:52;;;;;;;3.35;2.47;;;23.30;32.40;;;;;;6218003;27;83473;-67
2021/04/13 03:45:53;;;;;;;4.72;3.10;;;23.30;32.40;;;;;;6213092;28;81633;-67
2021/04/13 03:48:54;;;;;;;4.07;2.53;;;23.30;32.20;;;;;;6215053;28;81320;-67
2021/04/13 03:51:54;;;;;;;3.15;2.50;;;23.30;31.90;;;;;;6211107;28;80859;-67
2021/04/13 03:54:55;;;;;;;3.50;2.55;;;23.30;31.80;;;;;;6209037;28;80603;-67
2021/04/13 03:57:55;;;;;;;4.32;2.97;;;23.30;31.80;;;;;;6210332;28;83102;-67
2021/04/13 04:00:56;;;;;;;3.22;2.53;;;23.30;31.80;;;;;;6196988;28;83044;-67
2021/04/13 04:03:56;;;;;;;3.90;2.97;;;23.30;31.80;;;;;;6192034;28;81348;-66
2021/04/13 04:07:05;;;;;;;3.58;2.53;;;23.30;31.70;;;;;;6195503;28;80962;-66
2021/04/13 04:10:06;;;;;;;2.60;2.20;;;23.30;31.60;;;;;;6199965;28;81086;-65
2021/04/13 04:13:06;;;;;;;3.20;2.40;;;23.40;31.40;;;;;;6207500;28;80914;-65
2021/04/13 04:16:07;;;;;;;3.55;2.50;;;23.40;31.40;;;;;;6194891;28;80758;-66
2021/04/13 04:19:08;;;;;;;3.85;2.75;;;23.40;31.30;;;;;;6198324;27;80777;-62
2021/04/13 04:22:08;;;;;;;4.30;2.40;;;23.40;31.40;;;;;;6198081;28;80513;-62
2021/04/13 04:25:09;;;;;;;3.40;2.58;;;23.40;31.20;;;;;;6202885;28;81248;-67
2021/04/13 04:28:09;;;;;;;5.05;2.20;;;23.40;31.00;;;;;;6200340;28;81427;-67
2021/04/13 04:31:10;;;;;;;4.95;2.67;;;23.40;31.40;;;;;;6204963;28;80572;-67
2021/04/13 04:34:10;;;;;;;3.67;2.53;;;23.40;31.80;;;;;;6202851;28;82080;-64
2021/04/13 04:37:11;;;;;;;4.90;2.78;;;23.40;31.90;;;;;;6204940;27;80917;-67
2021/04/13 04:40:11;;;;;;;4.63;2.33;;;23.40;31.90;;;;;;6229869;28;80688;-67
2021/04/13 04:43:14;;;;;;;2.63;2.20;;;23.40;32.40;;;;;;6206346;27;80057;-66
2021/04/13 04:46:14;;;;;;;2.67;2.20;;;23.40;32.50;;;;;;6198120;28;80627;-68
2021/04/13 04:49:15;;;;;;;3.10;2.40;;;23.40;32.80;;;;;;6196388;28;83008;-68
2021/04/13 04:52:16;;;;;;;3.75;2.42;;;23.50;32.90;;;;;;6214233;28;83004;-67
2021/04/13 04:55:16;;;;;;;4.95;2.85;;;23.40;32.80;;;;;;6206722;28;81752;-66
2021/04/13 04:58:17;;;;;;;4.28;2.55;;;23.50;32.70;;;;;;6215838;28;80773;-66
2021/04/13 05:01:17;;;;;;;4.80;2.40;;;23.50;32.50;;;;;;6237057;28;81310;-68
2021/04/13 05:04:18;;;;;;;3.85;2.60;;;23.50;32.70;;;;;;6220454;27;81699;-67
2021/04/13 05:07:19;;;;;;;2.65;2.20;;;23.50;32.80;;;;;;6191467;28;81848;-67
2021/04/13 05:10:19;;;;;;;2.90;2.08;;;23.50;32.70;;;;;;6198069;27;82461;-68
2021/04/13 05:13:20;;;;;;;4.25;2.90;;;23.50;32.50;;;;;;6192697;28;81265;-67
2021/04/13 05:16:20;;;;;;;5.25;3.60;;;23.50;33.20;;;;;;6194630;28;81192;-67
2021/04/13 05:19:21;;;;;;;8.23;4.18;;;23.60;33.60;;;;;;6186636;28;83727;-67
2021/04/13 05:22:22;;;;;;;9.57;5.72;;;23.60;33.50;;;;;;6200905;27;80784;-66
2021/04/13 05:25:22;;;;;;;13.65;6.50;;;23.50;35.50;;;;;;6200744;28;81272;-67
2021/04/13 05:28:23;;;;;;;12.48;5.80;;;23.50;34.60;;;;;;6191875;28;80711;-68
2021/04/13 05:31:23;;;;;;;13.43;6.28;;;23.60;35.00;;;;;;6199971;28;81351;-67
2021/04/13 05:34:24;;;;;;;8.88;5.38;;;23.60;34.80;;;;;;6200415;28;80537;-69
2021/04/13 05:37:28;;;;;;;9.93;5.28;;;23.60;35.20;;;;;;6204118;28;83250;-67
2021/04/13 05:40:28;;;;;;;12.85;5.50;;;23.60;35.40;;;;;;6198929;28;83463;-67
2021/04/13 05:43:29;;;;;;;8.98;4.68;;;23.50;35.10;;;;;;6197849;28;80605;-67
2021/04/13 05:46:32;;;;;;;9.88;4.55;;;23.50;35.10;;;;;;6219096;28;81257;-68
2021/04/13 05:49:32;;;;;;;7.75;3.88;;;23.60;35.20;;;;;;6208071;27;80663;-66
2021/04/13 05:52:33;;;;;;;8.82;3.92;;;23.60;35.40;;;;;;6191715;27;80590;-66
2021/04/13 05:55:33;;;;;;;9.25;4.00;;;23.60;35.50;;;;;;6198406;28;80894;-67
2021/04/13 05:58:34;;;;;;;7.55;3.75;;;23.70;35.10;;;;;;6189119;28;80775;-67
2021/04/13 06:01:34;;;;;;;5.18;3.30;;;23.60;35.30;;;;;;6195338;28;81458;-67
2021/04/13 06:04:35;;;;;;;7.55;3.38;;;23.60;35.00;;;;;;6198044;28;81371;-66
2021/04/13 06:07:36;;;;;;;6.20;3.20;;;23.60;35.40;;;;;;6212101;28;89132;-67
2021/04/13 06:10:36;;;;;;;5.15;3.13;;;23.60;34.60;;;;;;6221158;27;83037;-65
2021/04/13 06:13:37;;;;;;;5.43;3.42;;;23.60;34.80;;;;;;6192675;27;81674;-66
2021/04/13 06:16:39;;;;;;;5.18;2.50;;;23.70;34.60;;;;;;6196995;28;81057;-72
2021/04/13 06:19:39;;;;;;;5.38;3.15;;;23.60;34.60;;;;;;6189355;28;80548;-74
2021/04/13 06:22:40;;;;;;;6.18;3.08;;;23.60;34.40;;;;;;6191000;28;80466;-70
2021/04/13 06:25:40;;;;;;;5.65;2.95;;;23.50;34.20;;;;;;6183922;28;80412;-72
2021/04/13 06:28:41;;;;;;;5.35;3.05;;;23.50;34.60;;;;;;6188542;28;80923;-71
2021/04/13 06:31:41;;;;;;;5.47;2.30;;;23.40;33.90;;;;;;6196258;28;80907;-67
2021/04/13 06:34:42;;;;;;;3.30;2.60;;;23.40;34.20;;;;;;6195361;28;80738;-70
2021/04/13 06:37:42;;;;;;;2.85;2.28;;;23.50;34.80;;;;;;6193950;28;82416;-69
2021/04/13 06:40:43;;;;;;;4.20;2.67;;;23.50;34.70;;;;;;6192455;28;82023;-70
2021/04/13 06:43:44;;;;;;;5.13;2.80;;;23.40;35.00;;;;;;6205926;28;83042;-69
2021/04/13 06:46:44;;;;;;;13.32;3.10;;;23.40;34.20;;;;;;6225146;27;80474;-68
2021/04/13 06:49:45;;;;;;;4.80;3.30;;;23.40;34.30;;;;;;6203442;28;81352;-69
2021/04/13 06:52:45;;;;;;;5.43;3.38;;;23.40;34.20;;;;;;6201433;28;80954;-68
2021/04/13 06:55:46;;;;;;;4.45;3.08;;;23.40;34.20;;;;;;6202373;28;80529;-68
2021/04/13 06:58:46;;;;;;;5.53;2.65;;;23.40;34.50;;;;;;6219266;27;81890;-68
2021/04/13 07:01:47;;;;;;;4.28;2.53;;;23.40;34.40;;;;;;6215878;28;82147;-69
2021/04/13 07:04:47;;;;;;;4.53;2.50;;;23.40;34.40;;;;;;6199756;28;82679;-69
2021/04/13 07:07:51;;;;;;;3.22;2.38;;;23.40;34.70;;;;;;6200653;28;81703;-69
2021/04/13 07:10:54;;;;;;;5.10;2.50;;;23.40;34.10;;;;;;6202644;28;81683;-70
2021/04/13 07:13:54;;;;;;;2.78;2.03;;;23.40;34.30;;;;;;6223746;28;81006;-69
2021/04/13 07:16:55;;;;;;;3.30;2.10;;;23.40;33.80;;;;;;6214859;28;81412;-68
2021/04/13 07:19:55;;;;;;;2.65;2.20;;;23.40;33.40;;;;;;6175764;28;80496;-71
2021/04/13 07:22:56;;;;;;;3.78;2.25;;;23.40;33.60;;;;;;6214960;27;81501;-68
2021/04/13 07:25:56;;;;;;;4.95;2.28;;;23.40;33.50;;;;;;6201793;28;82460;-68
2021/04/13 07:28:57;;;;;;;3.08;1.80;;;23.40;33.60;;;;;;6203117;28;81595;-69
2021/04/13 07:31:58;;;;;;;2.63;2.05;;;23.40;34.30;;;;;;6195647;28;80802;-69
2021/04/13 07:34:58;;;;;;;2.67;1.98;;;23.40;33.30;;;;;;6205011;28;80906;-68
2021/04/13 07:37:59;;;;;;;4.30;2.35;;;23.40;33.40;;;;;;6212497;28;80994;-69
2021/04/13 07:40:59;;;;;;;2.92;1.92;;;23.30;33.50;;;;;;6201105;28;81239;-69
2021/04/13 07:44:00;;;;;;;4.40;1.80;;;23.40;33.40;;;;;;6206453;28;81324;-70
2021/04/13 07:47:00;;;;;;;3.05;2.10;;;23.40;33.40;;;;;;6235947;27;82016;-70
2021/04/13 07:50:02;;;;;;;2.53;1.80;;;23.40;33.60;;;;;;6197661;28;80540;-71
2021/04/13 07:53:03;;;;;;;3.80;2.13;;;23.40;33.70;;;;;;6190767;28;84578;-69
2021/04/13 07:56:03;;;;;;;2.28;1.63;;;23.40;32.50;;;;;;6218237;28;82256;-72
2021/04/13 07:59:04;;;;;;;14.60;2.30;;;23.40;32.10;;;;;;6198945;28;80840;-73
2021/04/13 08:02:05;;;;;;;6.00;2.00;;;23.20;31.50;;;;;;6205256;27;80677;-71
2021/04/13 08:05:05;;;;;;;5.63;1.90;;;23.10;31.10;;;;;;6195981;28;80361;-71
2021/04/13 08:08:06;;;;;;;3.65;1.77;;;23.00;31.50;;;;;;6188963;28;80985;-71
2021/04/13 08:11:06;;;;;;;4.10;1.92;;;22.90;31.30;;;;;;6198274;28;81352;-70
2021/04/13 08:14:07;;;;;;;3.65;1.65;;;22.80;31.60;;;;;;6196182;28;81036;-71
2021/04/13 08:17:07;;;;;;;3.40;1.85;;;22.80;31.80;;;;;;6190657;28;81735;-71
2021/04/13 08:20:08;;;;;;;4.63;2.45;;;22.80;31.90;;;;;;6193523;28;81405;-70
2021/04/13 08:23:08;;;;;;;3.70;2.05;;;22.80;32.00;;;;;;6191901;28;81058;-72
2021/04/13 08:26:10;;;;;;;3.80;1.80;;;22.70;32.00;;;;;;6205448;28;81468;-71
2021/04/13 08:29:10;;;;;;;5.30;1.92;;;22.70;32.00;;;;;;6214994;28;81132;-73
2021/04/13 08:35:31;;;;;;;3.90;1.85;;;22.60;32.00;;;;;;6201390;28;80534;-70
2021/04/13 08:38:32;;;;;;;3.67;1.63;;;22.70;32.10;;;;;;6204808;28;80694;-71
2021/04/13 08:41:32;;;;;;;6.43;2.28;;;22.60;31.50;;;;;;6221997;28;81580;-72
2021/04/13 08:44:37;;;;;;;5.82;2.22;;;22.70;32.90;;;;;;6215149;28;81620;-73
2021/04/13 08:47:37;;;;;;;2.83;1.65;;;22.80;32.70;;;;;;6210492;28;82185;-72
2021/04/13 08:50:38;;;;;;;2.42;1.88;;;22.80;33.00;;;;;;6207850;27;80409;-72
2021/04/13 08:53:42;;;;;;;2.85;1.65;;;22.90;33.50;;;;;;6200120;28;80904;-73
2021/04/13 08:56:42;;;;;;;2.03;1.60;;;23.00;33.70;;;;;;6218131;28;80784;-72
2021/04/13 08:59:43;;;;;;;2.22;1.65;;;23.10;34.40;;;;;;6204208;28;81345;-73
2021/04/13 09:02:43;;;;;;;6.03;2.03;;;23.10;34.90;;;;;;6197874;28;81634;-70
2021/04/13 09:05:44;;;;;;;4.15;1.92;;;23.20;36.30;;;;;;6232276;28;80409;-71
2021/04/13 09:08:46;;;;;;;4.38;1.98;;;23.20;34.90;;;;;;6204552;28;80605;-71
2021/04/13 09:11:47;;;;;;;2.58;1.98;;;23.20;32.40;;;;;;6189259;28;80935;-71
2021/04/13 09:14:47;;;;;;;3.00;1.80;;;23.30;32.20;;;;;;6198158;28;80566;-73
2021/04/13 09:17:48;;;;;;;2.28;1.60;;;23.20;32.30;;;;;;6202996;28;81052;-72
2021/04/13 09:20:50;;;;;;;4.15;1.88;;;23.30;32.40;;;;;;6198661;27;81653;-73
2021/04/13 09:23:50;;;;;;;3.45;2.05;;;23.30;32.30;;;;;;6211170;28;81800;-71
2021/04/13 09:26:51;;;;;;;2.65;2.20;;;23.30;32.30;;;;;;6213984;27;80950;-71
2021/04/13 09:29:51;;;;;;;5.40;1.90;;;23.40;32.60;;;;;;6213583;28;80647;-71
2021/04/13 09:32:52;;;;;;;5.05;1.95;;;23.40;32.70;;;;;;6200223;28;80951;-70
2021/04/13 09:35:53;;;;;;;6.22;2.35;;;23.40;32.70;;;;;;6198324;28;80467;-71
2021/04/13 09:38:53;;;;;;;2.42;2.10;;;23.40;32.80;;;;;;6192723;28;81478;-70
2021/04/13 09:41:54;;;;;;;2.30;1.85;;;23.40;32.70;;;;;;6195647;28;81675;-71
2021/04/13 09:44:54;;;;;;;2.40;1.90;;;23.40;32.50;;;;;;6197423;27;83111;-69
2021/04/13 09:47:55;;;;;;;5.10;2.83;;;23.40;32.30;;;;;;6206524;28;80701;-69
2021/04/13 09:50:55;;;;;;;4.38;2.47;;;23.40;32.30;;;;;;6211591;28;80693;-70
2021/04/13 09:53:56;;;;;;;2.88;2.28;;;23.50;32.30;;;;;;6199009;28;81625;-69
2021/04/13 09:56:56;;;;;;;2.65;2.08;;;23.50;32.50;;;;;;6187076;27;80788;-69
2021/04/13 09:59:57;;;;;;;2.42;2.00;;;23.50;32.30;;;;;;6199975;28;81035;-69
2021/04/13 10:02:57;;;;;;;3.80;2.78;;;23.50;32.10;;;;;;6201934;28;80794;-68
2021/04/13 10:05:58;;;;;;;4.57;2.05;;;23.50;32.10;;;;;;6222697;28;80472;-71
2021/04/13 10:08:58;;;;;;;4.78;1.92;;;23.50;31.90;;;;;;6207569;27;81646;-71
2021/04/13 10:11:59;;;;;;;3.15;2.05;;;23.50;31.90;;;;;;6198043;28;80937;-72
2021/04/13 10:14:59;;;;;;;2.95;2.28;;;23.50;31.80;;;;;;6200690;28;81006;-71
2021/04/13 10:18:00;;;;;;;1.92;1.73;;;23.50;31.70;;;;;;6219304;28;80462;-72
2021/04/13 10:21:01;;;;;;;3.08;1.90;;;23.60;31.80;;;;;;6228471;28;81014;-71
2021/04/13 10:24:02;;;;;;;3.10;1.75;;;23.60;31.60;;;;;;6217282;28;81447;-70
2021/04/13 10:27:02;;;;;;;2.75;2.00;;;23.60;31.60;;;;;;6201962;28;80918;-70
2021/04/13 10:30:03;;;;;;;2.08;1.88;;;23.60;31.50;;;;;;6194664;28;80782;-69
2021/04/13 10:33:04;;;;;;;6.00;2.30;;;23.60;31.70;;;;;;6193826;28;80652;-72
2021/04/13 10:36:04;;;;;;;2.92;1.90;;;23.60;31.60;;;;;;6202576;28;91846;-70
2021/04/13 10:39:05;;;;;;;4.97;1.90;;;23.60;32.00;;;;;;6196838;27;80472;-70
2021/04/13 10:42:05;;;;;;;2.92;1.75;;;23.60;32.20;;;;;;6199488;28;80457;-70
2021/04/13 10:45:06;;;;;;;2.03;1.50;;;23.60;32.20;;;;;;6214552;28;80790;-72
2021/04/13 10:48:07;;;;;;;5.03;2.47;;;23.60;32.90;;;;;;6219012;28;81305;-70
2021/04/13 10:51:08;;;;;;;3.33;2.00;;;23.70;32.90;;;;;;6201869;27;81518;-71
2021/04/13 10:54:08;;;;;;;3.30;1.90;;;23.70;32.70;;;;;;6186369;28;81151;-70
2021/04/13 10:57:09;;;;;;;2.50;1.80;;;23.60;33.20;;;;;;6202754;28;80898;-71
2021/04/13 11:00:09;;;;;;;2.08;1.70;;;23.60;33.00;;;;;;6221326;28;80191;-70
2021/04/13 11:03:10;;;;;;;3.75;2.35;;;23.60;32.80;;;;;;6208099;28;80703;-69
2021/04/13 11:06:10;;;;;;;2.22;1.77;;;23.60;33.60;;;;;;6212035;27;80868;-69
2021/04/13 11:09:11;;;;;;;2.75;1.77;;;23.60;34.60;;;;;;6212846;28;81564;-70
2021/04/13 11:12:11;;;;;;;2.88;1.70;;;23.70;33.80;;;;;;6214181;28;81041;-69
2021/04/13 11:15:12;;;;;;;3.33;1.90;;;23.70;35.00;;;;;;6211029;27;80705;-71
2021/04/13 11:18:12;;;;;;;2.05;1.70;;;23.70;35.10;;;;;;6191670;28;80815;-70
2021/04/13 11:21:13;;;;;;;5.80;2.22;;;23.70;34.70;;;;;;6201215;28;83046;-69
2021/04/13 11:24:14;;;;;;;2.72;1.70;;;23.70;33.30;;;;;;6218941;28;80319;-69
2021/04/13 11:27:14;;;;;;;2.20;1.63;;;23.70;33.10;;;;;;6223587;28;80790;-70
2021/04/13 11:30:15;;;;;;;2.58;1.77;;;23.70;33.30;;;;;;6214535;28;81837;-70
2021/04/13 11:33:17;;;;;;;2.45;1.80;;;23.70;33.30;;;;;;6200368;28;80965;-69
2021/04/13 11:36:18;;;;;;;2.53;1.70;;;23.70;33.20;;;;;;6212185;28;81212;-71
2021/04/13 11:39:18;;;;;;;3.67;1.55;;;23.70;32.90;;;;;;6212206;27;81333;-72
2021/04/13 11:42:19;;;;;;;8.35;1.60;;;23.70;32.60;;;;;;6212914;28;81527;-71
2021/04/13 11:45:19;;;;;;;3.35;1.65;;;23.70;32.80;;;;;;6222680;28;82053;-73
2021/04/13 11:48:20;;;;;;;3.28;2.00;;;23.70;32.90;;;;;;6238698;27;81716;-73
2021/04/13 11:51:20;;;;;;;3.05;1.75;;;23.60;32.50;;;;;;6211837;28;81689;-74
2021/04/13 11:54:21;;;;;;;2.60;1.60;;;23.60;32.40;;;;;;6207363;27;80812;-72
2021/04/13 11:57:22;;;;;;;2.05;1.35;;;23.60;32.80;;;;;;6204210;27;80519;-72
2021/04/13 12:00:22;;;;;;;5.53;1.92;;;23.50;32.10;;;;;;6206458;28;80955;-74
2021/04/13 12:03:23;;;;;;;2.33;1.60;;;23.60;32.00;;;;;;6208653;28;83554;-74
2021/04/13 12:06:23;;;;;;;2.67;1.70;;;23.60;31.90;;;;;;6209065;28;80898;-72
2021/04/13 12:09:25;;;;;;;1.98;1.55;;;23.50;31.90;;;;;;6215997;28;80483;-72
2021/04/13 12:12:26;;;;;;;2.67;1.67;;;23.50;32.80;;;;;;6210639;27;80349;-73
2021/04/13 12:15:26;;;;;;;6.45;1.88;;;23.50;33.30;;;;;;6208201;28;81134;-75
2021/04/13 12:18:27;;;;;;;4.15;1.88;;;23.50;32.90;;;;;;6208884;27;80413;-73
2021/04/13 12:21:28;;;;;;;2.33;1.55;;;23.50;32.80;;;;;;6203710;27;80759;-73
2021/04/13 12:24:28;;;;;;;3.08;1.88;;;23.50;33.30;;;;;;6206057;27;81503;-74
2021/04/13 12:27:29;;;;;;;2.65;1.55;;;23.50;32.80;;;;;;6206565;28;80589;-71
2021/04/13 12:30:30;;;;;;;1.73;1.23;;;23.50;32.60;;;;;;6210285;28;83789;-73
2021/04/13 12:33:31;;;;;;;2.75;1.95;;;23.50;32.80;;;;;;6208486;27;83690;-74
2021/04/13 12:36:31;;;;;;;1.52;1.25;;;23.50;32.70;;;;;;6217010;28;83008;-73
2021/04/13 12:39:32;;;;;;;4.03;1.75;;;23.50;32.30;;;;;;6218932;27;81992;-72
2021/04/13 12:42:32;;;;;;;2.92;1.63;;;23.40;31.90;;;;;;6206641;28;81431;-72
2021/04/13 12:45:33;;;;;;;2.38;1.40;;;23.50;32.60;;;;;;6203052;28;80840;-72
2021/04/13 12:48:34;;;;;;;4.57;1.55;;;23.50;32.30;;;;;;6200494;28;80715;-71
2021/04/13 12:51:34;;;;;;;1.95;1.38;;;23.50;32.50;;;;;;6200156;28;80698;-71
2021/04/13 12:54:36;;;;;;;6.97;1.80;;;23.50;31.90;;;;;;6219648;28;80386;-71
2021/04/13 12:57:37;;;;;;;2.03;1.48;;;23.40;32.30;;;;;;6213439;28;81724;-73
2021/04/13 13:00:37;;;;;;;2.45;1.67;;;23.50;32.10;;;;;;6234644;27;81165;-71
2021/04/13 13:03:38;;;;;;;4.25;1.70;;;23.50;31.90;;;;;;6209709;28;86983;-71
2021/04/13 13:06:40;;;;;;;2.90;1.52;;;23.50;32.20;;;;;;6192634;27;80833;-72
2021/04/13 13:09:40;;;;;;;2.33;1.50;;;23.50;31.80;;;;;;6198131;28;80337;-69
2021/04/13 13:12:41;;;;;;;3.92;1.75;;;23.50;31.90;;;;;;6199845;27;81252;-71
2021/04/13 13:15:42;;;;;;;2.13;1.75;;;23.50;31.80;;;;;;6212046;28;80917;-71
2021/04/13 13:18:45;;;;;;;4.07;1.70;;;23.50;31.90;;;;;;6225455;28;83266;-71
2021/04/13 13:21:45;;;;;;;2.65;1.70;;;23.50;31.90;;;;;;6214029;27;80968;-70
2021/04/13 13:24:49;;;;;;;1.73;1.45;;;23.50;31.90;;;;;;6221956;27;81744;-70
2021/04/13 13:27:49;;;;;;;2.35;1.60;;;23.50;32.30;;;;;;6224640;27;80731;-69
2021/04/13 13:30:50;;;;;;;2.60;1.60;;;23.50;32.40;;;;;;6206486;27;80739;-72
2021/04/13 13:33:51;;;;;;;2.92;1.65;;;23.50;32.10;;;;;;6201508;27;81349;-70
2021/04/13 13:36:51;;;;;;;6.68;2.03;;;23.50;32.20;;;;;;6189717;28;80710;-72
2021/04/13 13:39:52;;;;;;;1.80;1.50;;;23.50;32.70;;;;;;6203605;28;81287;-71
2021/04/13 13:42:54;;;;;;;1.90;1.42;;;23.50;33.00;;;;;;6213786;28;80706;-68
2021/04/13 13:45:54;;;;;;;3.00;1.73;;;23.40;33.10;;;;;;6203859;28;81601;-72
2021/04/13 13:48:55;;;;;;;2.15;1.42;;;23.50;33.20;;;;;;6201102;27;81145;-71
2021/04/13 13:51:56;;;;;;;2.65;1.55;;;23.50;32.50;;;;;;6194523;28;80619;-72
2021/04/13 13:54:56;;;;;;;2.35;1.67;;;23.50;32.50;;;;;;6199254;28;81468;-69
2021/04/13 13:57:57;;;;;;;2.70;1.70;;;23.50;32.60;;;;;;6215810;27;80552;-70
2021/04/13 14:00:57;;;;;;;3.58;1.60;;;23.50;32.40;;;;;;6207250;28;81601;-70
2021/04/13 14:03:58;;;;;;;3.22;1.63;;;23.50;32.70;;;;;;6204311;28;82168;-69
2021/04/13 14:06:58;;;;;;;2.92;1.65;;;23.50;33.00;;;;;;6212328;27;82932;-68
2021/04/13 14:09:59;;;;;;;2.78;1.70;;;23.50;32.90;;;;;;6197599;28;83043;-70
2021/04/13 14:13:01;;;;;;;2.50;1.52;;;23.50;32.70;;;;;;6193997;28;80406;-69
2021/04/13 14:16:02;;;;;;;2.67;1.98;;;23.50;33.00;;;;;;6224649;28;80793;-70
2021/04/13 14:19:02;;;;;;;2.67;1.83;;;23.50;32.60;;;;;;6210051;28;80714;-70
2021/04/13 14:22:03;;;;;;;2.17;1.48;;;23.50;32.00;;;;;;6196961;28;81387;-69
2021/04/13 14:25:03;;;;;;;2.53;1.67;;;23.50;32.00;;;;;;6194141;28;80578;-67
2021/04/13 14:28:04;;;;;;;3.97;1.58;;;23.40;31.90;;;;;;6190664;28;80915;-66
2021/04/13 14:31:04;;;;;;;1.75;1.50;;;23.40;32.50;;;;;;6213519;28;81833;-66
2021/04/13 14:34:07;;;;;;;2.28;1.65;;;23.40;32.10;;;;;;6222866;28;80994;-67
2021/04/13 14:37:07;;;;;;;2.47;1.60;;;23.50;32.10;;;;;;6219329;28;80726;-66
2021/04/13 14:40:08;;;;;;;2.75;1.70;;;23.50;32.40;;;;;;6204946;27;80715;-67
2021/04/13 14:43:09;;;;;;;2.17;1.70;;;23.40;32.10;;;;;;6196840;28;82920;-67
2021/04/13 14:46:09;;;;;;;2.63;1.92;;;23.40;32.40;;;;;;6218233;28;81697;-67
2021/04/13 14:49:10;;;;;;;3.85;1.85;;;23.50;32.30;;;;;;6225515;28;80559;-68
2021/04/13 14:52:10;;;;;;;3.38;1.65;;;23.50;32.10;;;;;;6221406;28;81360;-67
2021/04/13 14:55:11;;;;;;;3.72;1.63;;;23.50;32.00;;;;;;6203016;27;80353;-67
2021/04/13 14:58:11;;;;;;;2.28;1.70;;;23.50;32.00;;;;;;6190609;28;81296;-66
2021/04/13 15:01:12;;;;;;;2.67;1.50;;;23.50;31.70;;;;;;6199596;28;80523;-67
2021/04/13 15:04:13;;;;;;;4.05;2.00;;;23.50;31.80;;;;;;6197960;28;81283;-67
2021/04/13 15:07:13;;;;;;;5.43;1.70;;;23.50;31.70;;;;;;6201038;27;82293;-67
2021/04/13 15:10:14;;;;;;;2.53;1.90;;;23.50;31.50;;;;;;6215721;27;81967;-66
2021/04/13 15:13:14;;;;;;;2.58;1.60;;;23.50;31.40;;;;;;6210724;27;88682;-65
2021/04/13 15:16:15;;;;;;;2.58;1.70;;;23.50;31.40;;;;;;6192711;28;83238;-64
2021/04/13 15:19:15;;;;;;;2.30;1.77;;;23.50;31.20;;;;;;6204485;28;80755;-65
2021/04/13 15:22:16;;;;;;;2.60;2.10;;;23.50;31.30;;;;;;6219301;27;81986;-65
2021/04/13 15:25:16;;;;;;;3.50;1.83;;;23.50;31.80;;;;;;6214172;27;80849;-66
2021/04/13 15:28:17;;;;;;;5.07;2.40;;;23.60;31.40;;;;;;6203711;28;81484;-66
2021/04/13 15:31:17;;;;;;;4.55;2.05;;;23.50;31.30;;;;;;6216469;28;82115;-65
2021/04/13 15:34:18;;;;;;;5.05;1.92;;;23.50;31.30;;;;;;6223465;28;80876;-67
2021/04/13 15:37:18;;;;;;;7.82;2.45;;;23.50;31.00;;;;;;6197166;27;80987;-66
2021/04/13 15:40:19;;;;;;;1.92;1.73;;;23.50;32.00;;;;;;6200973;27;80986;-67
2021/04/13 15:43:20;;;;;;;4.50;2.20;;;23.50;31.80;;;;;;6214529;28;82681;-66